OMDBOPRN

Guest
Details From OMDB - Dubai Intl
To OPRN - Chaklala
Flight Number -
Tags Generated
Created
Modified
Stats Distance 1,053 nm / 1,949 km
Max Altitude 0 ft / 0 m
Waypoints 3
Social Downloads 2
Likes 0
Share VATSIM

Download

Looking for another format? Having issues loading an existing format? Contact us
Advertisement - Login to hide

Notes

Generated

Route

OMDB RN265 OPRN

ID Type Via Altitude Latitude Longitude Leg Dist Tot Dist Heading (true) Name
O OMDB APT - 0 ft / 0 m 25.26213˚ 55.34757˚ - 0 nm - -
RN265 FIX - 0 ft / 0 m 33.59862˚ 73.02648˚ 1049 nm 1049 nm 57° / 66° -
O OPRN APT - 0 ft / 0 m 33.62378˚ 73.08317˚ 3 nm 1052 nm 62° / 62° -

Altitude Profile

Advertisement - Login to hide

Weather


0- 5 10 15 20 25 30 35+ Temperature / ° C

Clouds and Precipitation
Forecast for 2018-05-23 18:00 UTC. Updated 6 hours ago

Ground ~20,000 ft ~40,000 ft Winds

OMDB

Details ICAO OMDB (DXB)
Name DUBAI INTL
Region United Arab Emirates
Timezone Asia/Dubai (UTC+4.0)
Stats Elevation 62 ft / 19 m (AMSL)
Location 25.254912° 55.364260°
Runways 2
Magnetic Variation 2.068° E

METAR

OMDB 232300Z 10004KT 060V150 CAVOK 30/19 Q1005 NOSIG

Decode

TAF

TAF OMDB 231655Z 2318/2500 16005KT CAVOK BECMG 2408/2410 32014KT BECMG 2415/2417 09005KT

Decode

Departure Runways

ID Width Length Bearing (true) Bearing (mag) Surface Threshold Offset Overrun Length
12L 197 ft / 60 m 13,124 ft / 4,000 m 121.49° 119.42° Asphalt 1,312 ft / 400 m 395 ft / 120 m
12R 151 ft / 46 m 13,139 ft / 4,005 m 121.48° 119.41° Asphalt 394 ft / 120 m 197 ft / 60 m
30L 151 ft / 46 m 13,139 ft / 4,005 m 301.50° 299.43° Asphalt 2,953 ft / 900 m 197 ft / 60 m
30R 197 ft / 60 m 13,124 ft / 4,000 m 301.51° 299.44° Asphalt 0 ft / 0 m 395 ft / 120 m

OPRN

Details ICAO OPRN (ISB)
Name CHAKLALA
Region Pakistan
Timezone Asia/Karachi (UTC+5.0)
Stats Elevation 1,668 ft / 508 m (AMSL)
Location 33.616768° 73.098812°
Runways 1
Magnetic Variation 2.639° E

METAR

OPRN 232300Z 00000KT CAVOK 23/11 Q1006 NOSIG RMK A2972

Decode

TAF

Not found

Destination Runways

ID Width Length Bearing (true) Bearing (mag) Surface Threshold Offset Overrun Length
12 150 ft / 46 m 10,795 ft / 3,290 m 118.28° 115.64° Asphalt 885 ft / 270 m 680 ft / 207 m
30 150 ft / 46 m 10,795 ft / 3,290 m 298.30° 295.66° Asphalt 885 ft / 270 m 740 ft / 226 m

Approach Navaids

Runway Type Ident Frequency Range Bearing (true) Bearing (mag) Slope Elevation
30 Localiser IRN 110.30 MHz 18 nm / 33 km 298.21° 295.57° - 1,656 ft / 505 m (AMSL)
30 Glidescope IRN 110.30 MHz 10 nm / 19 km 298.29° 295.65° 3.00° 1,707 ft / 520 m (AMSL)
30 DME IRN 110.30 MHz 18 nm / 33 km - - - 1,713 ft / 522 m (AMSL)

Popular Alternatives